Time;durP1;ratioP1;P1;durP2;ratioP2;P2;SDS_P1;SDS_P2;PMS_P1;PMS_P2;Temp;Humidity;BMP_temperature;BMP_pressure;BME280_temperature;BME280_humidity;BME280_pressure;Samples;Min_cycle;Max_cycle;Signal;HPM_P1;HPM_P2
2022/12/03 00:00:04;;;;;;;38.50;20.53;;;;;;;;;;5006565;28;20548;-86
2022/12/03 00:03:08;;;;;;;36.53;19.17;;;;;;;;;;5006189;28;20647;-86
2022/12/03 00:06:13;;;;;;;36.40;18.97;;;;;;;;;;5006258;28;20595;-86
2022/12/03 00:09:17;;;;;;;35.03;18.87;;;;;;;;;;5006139;28;20612;-86
2022/12/03 00:12:21;;;;;;;33.33;18.13;;;;;;;;;;5006892;28;20603;-86
2022/12/03 00:15:25;;;;;;;35.97;19.77;;;;;;;;;;4995162;28;20885;-86
2022/12/03 00:18:29;;;;;;;38.40;20.27;;;;;;;;;;5006088;28;20612;-86
2022/12/03 00:21:33;;;;;;;37.50;19.93;;;;;;;;;;4995416;28;20600;-86
2022/12/03 00:24:37;;;;;;;38.90;20.13;;;;;;;;;;5006545;28;20541;-86
2022/12/03 00:27:41;;;;;;;43.17;21.50;;;;;;;;;;5005712;28;20651;-85
2022/12/03 00:30:45;;;;;;;39.93;20.13;;;;;;;;;;4994767;28;20537;-85
2022/12/03 00:33:51;;;;;;;40.00;20.07;;;;;;;;;;5017431;28;20544;-85
2022/12/03 00:36:55;;;;;;;38.90;20.43;;;;;;;;;;4984070;28;20631;-86
2022/12/03 00:39:59;;;;;;;39.40;19.83;;;;;;;;;;4995117;28;20549;-85
2022/12/03 00:43:03;;;;;;;37.83;19.83;;;;;;;;;;5006171;28;21158;-86
2022/12/03 00:46:08;;;;;;;35.77;18.73;;;;;;;;;;5006057;28;20548;-85
2022/12/03 00:49:12;;;;;;;35.80;18.90;;;;;;;;;;4995100;28;20553;-87
2022/12/03 00:52:16;;;;;;;37.60;19.50;;;;;;;;;;5006655;28;20987;-85
2022/12/03 00:55:20;;;;;;;35.23;19.57;;;;;;;;;;5006703;28;20545;-85
2022/12/03 00:58:24;;;;;;;36.07;19.43;;;;;;;;;;4977123;28;20656;-85
2022/12/03 01:01:29;;;;;;;37.33;20.37;;;;;;;;;;5019291;22;20693;-88
2022/12/03 01:04:33;;;;;;;42.33;21.27;;;;;;;;;;5055358;28;20547;-86
2022/12/03 01:07:38;;;;;;;41.60;20.83;;;;;;;;;;5042564;28;20551;-87
2022/12/03 01:10:42;;;;;;;40.00;21.13;;;;;;;;;;5030841;28;20916;-87
2022/12/03 01:13:46;;;;;;;37.13;20.30;;;;;;;;;;5038558;28;20551;-86
2022/12/03 01:16:51;;;;;;;43.70;21.37;;;;;;;;;;5035875;28;20563;-85
2022/12/03 01:19:56;;;;;;;38.20;19.43;;;;;;;;;;5036437;28;20562;-86
2022/12/03 01:23:01;;;;;;;38.07;20.17;;;;;;;;;;5018763;28;20682;-86
2022/12/03 01:26:05;;;;;;;40.03;20.10;;;;;;;;;;5015476;28;20548;-86
2022/12/03 01:29:09;;;;;;;39.37;19.33;;;;;;;;;;5014584;28;20607;-86
2022/12/03 01:32:18;;;;;;;42.00;20.43;;;;;;;;;;5025596;28;20619;-86
2022/12/03 01:35:22;;;;;;;41.10;21.47;;;;;;;;;;5014086;28;20635;-86
2022/12/03 01:38:26;;;;;;;40.73;20.43;;;;;;;;;;5013460;28;20599;-86
2022/12/03 01:41:31;;;;;;;37.43;19.40;;;;;;;;;;5013037;28;20634;-86
2022/12/03 01:44:37;;;;;;;44.23;20.70;;;;;;;;;;5024058;28;20544;-86
2022/12/03 01:47:41;;;;;;;41.77;20.10;;;;;;;;;;5014633;28;20544;-86
2022/12/03 01:50:45;;;;;;;39.40;20.17;;;;;;;;;;5015322;28;20536;-86
2022/12/03 01:53:49;;;;;;;43.83;21.33;;;;;;;;;;5014616;28;20547;-86
2022/12/03 01:56:54;;;;;;;42.10;20.77;;;;;;;;;;5037915;28;20540;-86
2022/12/03 01:59:59;;;;;;;38.17;20.70;;;;;;;;;;5014232;28;20547;-86
2022/12/03 02:03:22;;;;;;;42.00;20.10;;;;;;;;;;5116186;27;20322;-87
2022/12/03 02:06:28;;;;;;;45.50;20.63;;;;;;;;;;5102712;28;21097;-85
2022/12/03 02:09:32;;;;;;;45.60;20.13;;;;;;;;;;5089949;28;20536;-86
2022/12/03 02:12:50;;;;;;;39.63;19.07;;;;;;;;;;5090077;28;20615;-86
2022/12/03 02:15:55;;;;;;;42.50;20.40;;;;;;;;;;5100994;28;21075;-86
2022/12/03 02:18:59;;;;;;;43.17;20.30;;;;;;;;;;5100518;28;20533;-86
2022/12/03 02:22:28;;;;;;;43.90;21.63;;;;;;;;;;5100286;28;20648;-86
2022/12/03 02:25:35;;;;;;;42.77;20.33;;;;;;;;;;5101418;28;20552;-86
2022/12/03 02:28:39;;;;;;;48.67;20.30;;;;;;;;;;5115123;28;20537;-86
2022/12/03 02:31:43;;;;;;;45.07;20.03;;;;;;;;;;5091255;28;20608;-86
2022/12/03 02:34:49;;;;;;;51.00;22.27;;;;;;;;;;5103143;28;20533;-86
2022/12/03 02:38:16;;;;;;;46.60;20.60;;;;;;;;;;5099998;28;20588;-87
2022/12/03 02:44:42;;;;;;;43.87;20.00;;;;;;;;;;5100283;28;20544;-87
2022/12/03 02:47:53;;;;;;;46.70;21.90;;;;;;;;;;5099592;28;20540;-86
2022/12/03 02:51:02;;;;;;;49.83;22.40;;;;;;;;;;5087588;28;20615;-87
2022/12/03 02:54:06;;;;;;;48.60;20.90;;;;;;;;;;5087289;28;20604;-87
2022/12/03 02:57:10;;;;;;;44.87;18.60;;;;;;;;;;5099234;28;20599;-87
2022/12/03 03:00:17;;;;;;;45.23;20.47;;;;;;;;;;5099051;28;20545;-87
2022/12/03 03:03:23;;;;;;;48.57;20.87;;;;;;;;;;5087132;28;20580;-87
2022/12/03 03:06:27;;;;;;;41.77;18.60;;;;;;;;;;5087533;28;21070;-87
2022/12/03 03:09:33;;;;;;;47.10;20.73;;;;;;;;;;5099118;28;21054;-87
2022/12/03 03:12:37;;;;;;;45.50;20.37;;;;;;;;;;5096699;28;20616;-87
2022/12/03 03:15:42;;;;;;;49.47;21.23;;;;;;;;;;5096850;28;20861;-87
2022/12/03 03:18:47;;;;;;;47.67;20.80;;;;;;;;;;5073644;28;20537;-87
2022/12/03 03:21:52;;;;;;;46.67;21.20;;;;;;;;;;5085034;28;20975;-87
2022/12/03 03:24:56;;;;;;;49.37;20.50;;;;;;;;;;5085030;28;20533;-86
2022/12/03 03:28:01;;;;;;;50.37;21.17;;;;;;;;;;5084876;28;20541;-87
2022/12/03 03:31:07;;;;;;;44.00;20.47;;;;;;;;;;5073038;28;21185;-87
2022/12/03 03:34:12;;;;;;;47.80;20.63;;;;;;;;;;5084298;28;20529;-87
2022/12/03 03:37:16;;;;;;;41.97;19.77;;;;;;;;;;5084909;28;20533;-87
2022/12/03 03:40:21;;;;;;;39.03;17.67;;;;;;;;;;5073414;28;20541;-87
2022/12/03 03:43:27;;;;;;;43.57;18.80;;;;;;;;;;5073119;28;20593;-87
2022/12/03 03:46:32;;;;;;;44.53;20.47;;;;;;;;;;5096503;28;20537;-87
2022/12/03 03:49:37;;;;;;;45.40;20.03;;;;;;;;;;5084129;28;20546;-87
2022/12/03 03:52:41;;;;;;;48.23;19.80;;;;;;;;;;5084420;28;20612;-87
2022/12/03 03:55:46;;;;;;;39.87;18.77;;;;;;;;;;5072715;28;20533;-87
2022/12/03 03:58:50;;;;;;;40.37;17.80;;;;;;;;;;5084323;28;21059;-87
2022/12/03 04:01:55;;;;;;;35.80;17.63;;;;;;;;;;5072286;28;20660;-87
2022/12/03 04:04:59;;;;;;;39.17;19.40;;;;;;;;;;5084309;28;20529;-87
2022/12/03 04:08:03;;;;;;;39.60;17.60;;;;;;;;;;5084114;28;20538;-87
2022/12/03 04:14:30;;;;;;;42.63;19.17;;;;;;;;;;5096286;28;20537;-87
2022/12/03 04:17:35;;;;;;;44.07;19.17;;;;;;;;;;5072617;28;20541;-87
2022/12/03 04:20:40;;;;;;;43.27;19.13;;;;;;;;;;5071727;28;20597;-87
2022/12/03 04:23:44;;;;;;;42.07;20.57;;;;;;;;;;5083785;28;20929;-86
2022/12/03 04:30:10;;;;;;;41.83;19.33;;;;;;;;;;5084826;28;20541;-86
2022/12/03 04:36:37;;;;;;;43.73;18.27;;;;;;;;;;5083990;28;20542;-86
2022/12/03 04:39:42;;;;;;;39.43;16.97;;;;;;;;;;5084392;28;20533;-87
2022/12/03 04:42:46;;;;;;;44.10;18.97;;;;;;;;;;5096137;28;20644;-86
2022/12/03 04:45:50;;;;;;;30.37;15.03;;;;;;;;;;5084795;28;20931;-86
2022/12/03 04:48:54;;;;;;;33.53;15.77;;;;;;;;;;5084549;28;20537;-86
2022/12/03 04:51:59;;;;;;;38.67;17.00;;;;;;;;;;5095150;28;20612;-86
2022/12/03 04:55:03;;;;;;;40.03;17.10;;;;;;;;;;5083839;28;20541;-86
2022/12/03 04:58:08;;;;;;;33.67;15.53;;;;;;;;;;5083667;28;20541;-87
2022/12/03 05:01:12;;;;;;;38.07;16.30;;;;;;;;;;5095068;28;20648;-87
2022/12/03 05:04:17;;;;;;;39.57;16.53;;;;;;;;;;5083301;28;20529;-87
2022/12/03 05:07:21;;;;;;;42.23;18.63;;;;;;;;;;5071341;28;20593;-86
2022/12/03 05:10:25;;;;;;;41.13;17.97;;;;;;;;;;5083054;28;20537;-86
2022/12/03 05:13:29;;;;;;;49.47;18.07;;;;;;;;;;5082880;28;20557;-86
2022/12/03 05:16:34;;;;;;;46.00;18.63;;;;;;;;;;5094325;28;20533;-86
2022/12/03 05:23:00;;;;;;;46.33;18.57;;;;;;;;;;5094186;28;20653;-87
2022/12/03 05:26:04;;;;;;;46.27;18.43;;;;;;;;;;5071275;28;20541;-86
2022/12/03 05:29:11;;;;;;;43.97;18.23;;;;;;;;;;5071587;28;20592;-86
2022/12/03 05:32:15;;;;;;;46.90;19.33;;;;;;;;;;5083081;28;20945;-86
2022/12/03 05:35:19;;;;;;;39.77;18.87;;;;;;;;;;5094160;28;20877;-87
2022/12/03 05:38:23;;;;;;;43.03;18.13;;;;;;;;;;5082293;28;20541;-86
2022/12/03 05:44:50;;;;;;;43.33;16.47;;;;;;;;;;5093962;28;20534;-87
2022/12/03 05:47:55;;;;;;;46.23;17.80;;;;;;;;;;5082138;28;20541;-86
2022/12/03 05:50:59;;;;;;;35.60;16.10;;;;;;;;;;5082435;28;20956;-87
2022/12/03 05:54:03;;;;;;;40.30;16.07;;;;;;;;;;5082632;28;20533;-86
2022/12/03 05:57:07;;;;;;;41.00;17.13;;;;;;;;;;5071460;28;20533;-86
2022/12/03 06:00:15;;;;;;;39.17;17.20;;;;;;;;;;5082536;28;20545;-86
2022/12/03 06:03:20;;;;;;;35.03;15.27;;;;;;;;;;5082188;28;20589;-86
2022/12/03 06:06:24;;;;;;;38.83;15.93;;;;;;;;;;5082484;28;20557;-86
2022/12/03 06:09:28;;;;;;;35.50;15.37;;;;;;;;;;5093670;28;20553;-86
2022/12/03 06:12:33;;;;;;;36.93;15.80;;;;;;;;;;5070406;28;20624;-86
2022/12/03 06:15:37;;;;;;;36.77;15.47;;;;;;;;;;5082059;28;20545;-86
2022/12/03 06:18:41;;;;;;;32.30;14.53;;;;;;;;;;5093782;28;20549;-86
2022/12/03 06:21:45;;;;;;;30.70;14.63;;;;;;;;;;5094268;28;20612;-87
2022/12/03 06:24:49;;;;;;;30.20;13.93;;;;;;;;;;5070781;28;20534;-86
2022/12/03 06:27:53;;;;;;;29.83;13.40;;;;;;;;;;5081877;28;20537;-86
2022/12/03 06:30:57;;;;;;;29.10;13.60;;;;;;;;;;5070317;28;20549;-86
2022/12/03 06:34:02;;;;;;;30.93;13.43;;;;;;;;;;5070577;28;20537;-86
2022/12/03 06:37:06;;;;;;;31.63;14.30;;;;;;;;;;5070072;28;20545;-86
2022/12/03 06:40:10;;;;;;;36.80;15.20;;;;;;;;;;5070273;28;21087;-86
2022/12/03 06:43:14;;;;;;;33.87;14.97;;;;;;;;;;5081630;28;20592;-86
2022/12/03 06:46:18;;;;;;;36.07;15.33;;;;;;;;;;5081426;28;20940;-86
2022/12/03 06:49:22;;;;;;;34.00;14.47;;;;;;;;;;5084846;28;20544;-86
2022/12/03 06:52:27;;;;;;;31.73;13.87;;;;;;;;;;5086109;28;20620;-86
2022/12/03 06:55:31;;;;;;;29.30;13.50;;;;;;;;;;5074744;28;20549;-86
2022/12/03 06:58:35;;;;;;;27.10;13.13;;;;;;;;;;5085637;28;20545;-86
2022/12/03 07:01:43;;;;;;;30.03;13.80;;;;;;;;;;5075280;28;20632;-86
2022/12/03 07:04:47;;;;;;;28.03;13.00;;;;;;;;;;5024300;28;20636;-86
2022/12/03 07:07:54;;;;;;;28.77;14.97;;;;;;;;;;5014336;28;20561;-86
2022/12/03 07:10:58;;;;;;;31.10;14.03;;;;;;;;;;5011201;28;20596;-86
2022/12/03 07:14:05;;;;;;;28.97;13.40;;;;;;;;;;5004658;28;20554;-84
2022/12/03 07:17:09;;;;;;;33.27;14.53;;;;;;;;;;4996249;28;20550;-84
2022/12/03 07:21:03;;;;;;;31.47;14.30;;;;;;;;;;5004956;28;20546;-86
2022/12/03 07:24:07;;;;;;;33.13;14.63;;;;;;;;;;5008608;28;20601;-86
2022/12/03 07:27:11;;;;;;;32.93;15.00;;;;;;;;;;4993753;28;20542;-85
2022/12/03 07:30:16;;;;;;;29.40;13.97;;;;;;;;;;5006438;28;20538;-86
2022/12/03 07:33:20;;;;;;;34.97;14.63;;;;;;;;;;5007917;28;20632;-86
2022/12/03 07:36:24;;;;;;;30.93;14.67;;;;;;;;;;4995584;28;20553;-86
2022/12/03 07:39:29;;;;;;;30.30;13.90;;;;;;;;;;4985752;28;20538;-85
2022/12/03 07:42:33;;;;;;;32.07;13.67;;;;;;;;;;4988178;28;20621;-85
2022/12/03 07:45:38;;;;;;;32.03;14.00;;;;;;;;;;4984621;28;20645;-87
2022/12/03 07:48:42;;;;;;;31.00;14.40;;;;;;;;;;4978833;28;20562;-86
2022/12/03 07:51:52;;;;;;;29.43;13.73;;;;;;;;;;4966956;28;20546;-87
2022/12/03 07:54:56;;;;;;;30.23;14.67;;;;;;;;;;4967676;28;20547;-86
2022/12/03 08:02:20;;;;;;;35.20;14.43;;;;;;;;;;5008029;28;20633;-85
2022/12/03 08:05:25;;;;;;;36.70;15.13;;;;;;;;;;4999618;28;21092;-84
2022/12/03 08:08:30;;;;;;;34.73;14.10;;;;;;;;;;5031525;28;20546;-84
2022/12/03 08:11:34;;;;;;;29.60;13.23;;;;;;;;;;5018988;28;20605;-84
2022/12/03 08:14:38;;;;;;;34.63;14.43;;;;;;;;;;5016982;28;20534;-85
2022/12/03 08:17:44;;;;;;;33.80;15.13;;;;;;;;;;5010864;28;20542;-84
2022/12/03 08:20:50;;;;;;;33.57;14.13;;;;;;;;;;5008824;28;20538;-85
2022/12/03 08:23:55;;;;;;;33.17;15.00;;;;;;;;;;5000595;28;20652;-85
2022/12/03 08:26:59;;;;;;;32.23;13.50;;;;;;;;;;5002340;28;20550;-84
2022/12/03 08:30:04;;;;;;;35.10;15.10;;;;;;;;;;4991032;28;20545;-84
2022/12/03 08:33:34;;;;;;;36.10;15.87;;;;;;;;;;4985401;28;21187;-85
2022/12/03 08:36:38;;;;;;;36.60;15.30;;;;;;;;;;4985697;28;20538;-84
2022/12/03 08:39:45;;;;;;;36.83;15.07;;;;;;;;;;5008699;28;20537;-84
2022/12/03 08:42:50;;;;;;;34.93;14.80;;;;;;;;;;4996552;28;21191;-84
2022/12/03 08:45:56;;;;;;;36.73;15.90;;;;;;;;;;4985826;28;20541;-84
2022/12/03 08:49:00;;;;;;;37.30;15.40;;;;;;;;;;4984782;28;20546;-84
2022/12/03 08:52:17;;;;;;;33.97;15.63;;;;;;;;;;4984431;28;20624;-84
2022/12/03 08:55:46;;;;;;;34.57;14.27;;;;;;;;;;4996295;28;20534;-84
2022/12/03 08:58:57;;;;;;;38.67;16.03;;;;;;;;;;4978385;28;20557;-86
2022/12/03 09:02:01;;;;;;;34.47;15.47;;;;;;;;;;4983775;28;20988;-86
2022/12/03 09:05:19;;;;;;;34.97;16.23;;;;;;;;;;4995051;28;20613;-86
2022/12/03 09:08:23;;;;;;;38.43;16.37;;;;;;;;;;4995074;28;20546;-86
2022/12/03 09:11:28;;;;;;;37.60;15.77;;;;;;;;;;4994492;28;20549;-86
2022/12/03 09:14:32;;;;;;;38.87;16.97;;;;;;;;;;4983591;28;20565;-86
2022/12/03 09:17:36;;;;;;;35.70;16.00;;;;;;;;;;5006046;28;21162;-86
2022/12/03 09:20:40;;;;;;;36.57;15.90;;;;;;;;;;4983902;28;20546;-86
2022/12/03 09:23:44;;;;;;;29.53;15.27;;;;;;;;;;4995119;28;20656;-87
2022/12/03 09:26:49;;;;;;;29.87;13.70;;;;;;;;;;4984449;28;20608;-86
2022/12/03 09:29:52;;;;;;;31.57;15.10;;;;;;;;;;4995330;28;21103;-86
2022/12/03 09:32:58;;;;;;;28.87;15.03;;;;;;;;;;4983979;28;20628;-86
2022/12/03 09:36:03;;;;;;;35.80;15.13;;;;;;;;;;4996480;28;20586;-86
2022/12/03 09:39:07;;;;;;;30.87;14.27;;;;;;;;;;4984445;28;21151;-86
2022/12/03 09:42:11;;;;;;;31.80;15.33;;;;;;;;;;4984216;28;20625;-86
2022/12/03 09:45:15;;;;;;;28.67;14.50;;;;;;;;;;4995494;28;20597;-86
2022/12/03 09:48:21;;;;;;;31.00;14.13;;;;;;;;;;4997032;28;20550;-86
2022/12/03 09:51:30;;;;;;;52.63;26.33;;;;;;;;;;5008101;28;20601;-86
2022/12/03 09:54:46;;;;;;;33.47;16.23;;;;;;;;;;4974966;28;20546;-87
2022/12/03 09:57:55;;;;;;;29.30;14.17;;;;;;;;;;4974550;28;20558;-85
2022/12/03 10:00:59;;;;;;;32.00;14.60;;;;;;;;;;4985001;28;20546;-85
2022/12/03 10:04:03;;;;;;;37.57;15.83;;;;;;;;;;4984904;28;21222;-86
2022/12/03 10:07:08;;;;;;;28.07;13.03;;;;;;;;;;5007396;28;20541;-85
2022/12/03 10:10:22;;;;;;;35.03;15.00;;;;;;;;;;4983725;28;20612;-85
2022/12/03 10:13:30;;;;;;;32.80;15.57;;;;;;;;;;4984018;28;20621;-86
2022/12/03 10:16:35;;;;;;;34.23;14.70;;;;;;;;;;4983637;28;20542;-86
2022/12/03 10:19:41;;;;;;;30.00;15.93;;;;;;;;;;4972336;28;20562;-86
2022/12/03 10:22:47;;;;;;;32.30;15.60;;;;;;;;;;4983192;28;20621;-86
2022/12/03 10:26:01;;;;;;;32.47;16.63;;;;;;;;;;4998484;28;20550;-86
2022/12/03 10:29:18;;;;;;;34.07;16.83;;;;;;;;;;4987488;28;20554;-87
2022/12/03 10:32:38;;;;;;;32.60;15.40;;;;;;;;;;4986919;28;20633;-87
2022/12/03 10:35:43;;;;;;;33.97;15.23;;;;;;;;;;4987055;28;20538;-86
2022/12/03 10:39:08;;;;;;;39.70;15.83;;;;;;;;;;4986642;28;21151;-86
2022/12/03 10:42:14;;;;;;;36.20;14.50;;;;;;;;;;4976817;28;21186;-87
2022/12/03 10:45:21;;;;;;;29.67;14.07;;;;;;;;;;4975208;28;20941;-87
2022/12/03 10:48:26;;;;;;;32.30;16.03;;;;;;;;;;4986492;28;20546;-87
2022/12/03 10:51:30;;;;;;;31.90;14.87;;;;;;;;;;4986424;28;20546;-86
2022/12/03 10:54:35;;;;;;;31.00;14.30;;;;;;;;;;4997785;28;20873;-87
2022/12/03 10:57:39;;;;;;;37.20;15.43;;;;;;;;;;4986387;28;20553;-87
2022/12/03 11:00:43;;;;;;;32.83;15.77;;;;;;;;;;4985993;28;20870;-88
2022/12/03 11:03:48;;;;;;;32.03;15.20;;;;;;;;;;4997041;28;20976;-87
2022/12/03 11:06:52;;;;;;;27.97;13.67;;;;;;;;;;4985699;28;20553;-87
2022/12/03 11:09:57;;;;;;;33.20;13.50;;;;;;;;;;4985953;28;20933;-87
2022/12/03 11:13:26;;;;;;;32.10;13.53;;;;;;;;;;4985654;28;20830;-86
2022/12/03 11:16:40;;;;;;;31.57;15.03;;;;;;;;;;4986617;28;20545;-86
2022/12/03 11:19:46;;;;;;;30.53;14.93;;;;;;;;;;4986407;28;20553;-87
2022/12/03 11:22:52;;;;;;;35.17;15.70;;;;;;;;;;4999072;28;20632;-86
2022/12/03 11:25:56;;;;;;;30.27;14.93;;;;;;;;;;4986210;28;20934;-86
2022/12/03 11:29:00;;;;;;;29.23;14.87;;;;;;;;;;4986221;28;20541;-86
2022/12/03 11:32:05;;;;;;;29.80;14.07;;;;;;;;;;4997392;28;20625;-86
2022/12/03 11:35:24;;;;;;;29.20;14.57;;;;;;;;;;4988499;28;20549;-86
2022/12/03 11:38:47;;;;;;;30.13;14.73;;;;;;;;;;4992838;28;20550;-87
2022/12/03 11:42:25;;;;;;;31.80;15.47;;;;;;;;;;4991391;28;21175;-87
2022/12/03 11:45:34;;;;;;;30.50;14.10;;;;;;;;;;4990547;28;20589;-86
2022/12/03 11:48:46;;;;;;;33.27;15.60;;;;;;;;;;5001379;28;20558;-87
2022/12/03 11:51:50;;;;;;;35.43;16.73;;;;;;;;;;5000938;28;20625;-86
2022/12/03 11:55:16;;;;;;;33.30;16.67;;;;;;;;;;4991396;28;20541;-88
2022/12/03 11:58:28;;;;;;;33.43;14.80;;;;;;;;;;4987941;28;21108;-88
2022/12/03 12:01:38;;;;;;;41.37;15.67;;;;;;;;;;4999562;28;20546;-88
2022/12/03 12:04:45;;;;;;;34.03;15.43;;;;;;;;;;4986531;28;20606;-88
2022/12/03 12:07:51;;;;;;;34.43;15.63;;;;;;;;;;4986665;28;20561;-88
2022/12/03 12:10:55;;;;;;;32.70;16.10;;;;;;;;;;4999300;28;20609;-88
2022/12/03 12:14:00;;;;;;;34.67;16.03;;;;;;;;;;4992690;28;20905;-87
2022/12/03 12:17:30;;;;;;;32.80;16.30;;;;;;;;;;4986321;28;20542;-88
2022/12/03 12:20:35;;;;;;;35.60;16.30;;;;;;;;;;4986359;28;20541;-88
2022/12/03 12:23:39;;;;;;;31.93;15.77;;;;;;;;;;5008786;28;20641;-90
2022/12/03 12:26:50;;;;;;;31.77;15.70;;;;;;;;;;4973121;28;20614;-89
2022/12/03 12:29:56;;;;;;;31.17;15.80;;;;;;;;;;4959943;28;20582;-89
2022/12/03 12:33:09;;;;;;;29.17;15.20;;;;;;;;;;4996487;28;20644;-90
2022/12/03 12:36:13;;;;;;;30.47;15.47;;;;;;;;;;5007434;28;20542;-88
2022/12/03 12:39:18;;;;;;;28.17;14.70;;;;;;;;;;4986657;28;20613;-88
2022/12/03 12:42:22;;;;;;;28.87;15.70;;;;;;;;;;4987851;28;20618;-88
2022/12/03 12:45:29;;;;;;;32.30;16.57;;;;;;;;;;4976188;28;20598;-88
2022/12/03 12:48:33;;;;;;;31.07;16.87;;;;;;;;;;4965182;28;20559;-86
2022/12/03 12:51:46;;;;;;;28.33;14.30;;;;;;;;;;4965753;28;20542;-87
2022/12/03 12:54:51;;;;;;;30.83;15.60;;;;;;;;;;4965237;28;20539;-87
2022/12/03 12:58:01;;;;;;;34.87;17.53;;;;;;;;;;4965540;28;20546;-87
2022/12/03 13:01:15;;;;;;;30.40;15.33;;;;;;;;;;4964742;28;21073;-86
2022/12/03 13:04:22;;;;;;;32.77;17.77;;;;;;;;;;4964907;28;20554;-86
2022/12/03 13:07:26;;;;;;;32.23;15.57;;;;;;;;;;4964439;28;20547;-86
2022/12/03 13:10:40;;;;;;;31.87;14.90;;;;;;;;;;4975523;28;20542;-86
2022/12/03 13:13:45;;;;;;;32.70;15.47;;;;;;;;;;4966451;28;20668;-86
2022/12/03 13:16:55;;;;;;;34.20;17.27;;;;;;;;;;4964370;28;20542;-86
2022/12/03 13:20:01;;;;;;;35.33;16.60;;;;;;;;;;4975089;28;20555;-87
2022/12/03 13:23:30;;;;;;;34.63;15.77;;;;;;;;;;4974795;28;20614;-86
2022/12/03 13:26:38;;;;;;;31.87;15.13;;;;;;;;;;4985926;28;20602;-86
2022/12/03 13:29:59;;;;;;;32.40;14.87;;;;;;;;;;4963910;28;20542;-86
2022/12/03 13:33:12;;;;;;;32.63;16.83;;;;;;;;;;4977874;28;20664;-87
2022/12/03 13:36:18;;;;;;;34.53;15.30;;;;;;;;;;4994541;28;20543;-86
2022/12/03 13:39:30;;;;;;;33.17;14.93;;;;;;;;;;4994697;28;20537;-87
2022/12/03 13:42:38;;;;;;;42.93;18.53;;;;;;;;;;4973150;28;20628;-86
2022/12/03 13:45:44;;;;;;;43.43;18.37;;;;;;;;;;4984027;28;21215;-86
2022/12/03 13:48:48;;;;;;;38.30;18.00;;;;;;;;;;4964142;28;20610;-90
2022/12/03 13:51:52;;;;;;;33.87;16.10;;;;;;;;;;4975984;28;20657;-91
2022/12/03 13:54:57;;;;;;;32.77;16.53;;;;;;;;;;4994210;28;20602;-92
2022/12/03 13:58:01;;;;;;;43.37;20.23;;;;;;;;;;4988891;28;20559;-88
2022/12/03 14:01:05;;;;;;;38.03;18.87;;;;;;;;;;4964306;28;20547;-86
2022/12/03 14:04:09;;;;;;;35.07;17.70;;;;;;;;;;4974584;28;21164;-89
2022/12/03 14:07:13;;;;;;;65.97;27.07;;;;;;;;;;4963672;28;20598;-86
2022/12/03 14:10:18;;;;;;;39.93;18.47;;;;;;;;;;4975064;28;20542;-86
2022/12/03 14:13:22;;;;;;;45.17;20.03;;;;;;;;;;4974853;28;20625;-86
2022/12/03 14:16:26;;;;;;;34.90;17.73;;;;;;;;;;4974692;28;20602;-87
2022/12/03 14:19:31;;;;;;;38.37;18.73;;;;;;;;;;4975253;28;20559;-87
2022/12/03 14:22:38;;;;;;;37.33;18.53;;;;;;;;;;4992848;28;20665;-87
2022/12/03 14:25:44;;;;;;;40.57;19.73;;;;;;;;;;4976963;28;20606;-88
2022/12/03 14:28:48;;;;;;;37.90;18.63;;;;;;;;;;4974799;28;20550;-87
2022/12/03 14:31:52;;;;;;;61.00;29.37;;;;;;;;;;4974897;28;20633;-88
2022/12/03 14:34:56;;;;;;;40.13;19.83;;;;;;;;;;4988778;28;20617;-89
2022/12/03 14:38:00;;;;;;;43.07;20.97;;;;;;;;;;4974079;28;20585;-89
2022/12/03 14:42:11;;;;;;;48.03;22.23;;;;;;;;;;4994718;28;20613;-89
2022/12/03 14:44:29;;;;;;;44.97;21.17;;;;;;;;;;4983074;28;20620;-88
2022/12/03 14:47:33;;;;;;;35.37;17.10;;;;;;;;;;5005228;28;20605;-86
2022/12/03 14:50:37;;;;;;;37.00;19.57;;;;;;;;;;4993777;28;20621;-84
2022/12/03 14:53:42;;;;;;;35.67;17.30;;;;;;;;;;4979112;28;20645;-86
2022/12/03 14:56:46;;;;;;;38.27;17.27;;;;;;;;;;5005999;28;20538;-87
2022/12/03 14:59:50;;;;;;;40.67;18.17;;;;;;;;;;4995332;28;20538;-86
2022/12/03 15:02:55;;;;;;;35.77;16.77;;;;;;;;;;5008343;28;20652;-88
2022/12/03 15:05:59;;;;;;;36.43;16.37;;;;;;;;;;4989182;28;20644;-88
2022/12/03 15:09:04;;;;;;;35.43;16.83;;;;;;;;;;4990052;28;20605;-88
2022/12/03 15:12:08;;;;;;;33.93;16.77;;;;;;;;;;5003806;28;20616;-86
2022/12/03 15:15:12;;;;;;;33.87;16.83;;;;;;;;;;5004601;28;20541;-88
2022/12/03 15:18:16;;;;;;;37.67;16.73;;;;;;;;;;4992618;28;20545;-87
2022/12/03 15:21:20;;;;;;;33.03;15.53;;;;;;;;;;4993696;28;20585;-87
2022/12/03 15:24:25;;;;;;;33.70;16.67;;;;;;;;;;5009845;28;20565;-87
2022/12/03 15:27:29;;;;;;;31.97;16.73;;;;;;;;;;5012927;28;20578;-86
2022/12/03 15:30:36;;;;;;;34.93;15.80;;;;;;;;;;5009918;28;20565;-86
2022/12/03 15:33:41;;;;;;;36.87;16.97;;;;;;;;;;5004837;28;21218;-86
2022/12/03 15:36:45;;;;;;;34.83;16.83;;;;;;;;;;5007856;28;20581;-87
2022/12/03 15:39:49;;;;;;;39.10;17.73;;;;;;;;;;4987006;28;20578;-86
2022/12/03 15:42:54;;;;;;;35.93;15.43;;;;;;;;;;4988132;28;20621;-86
2022/12/03 15:45:58;;;;;;;35.90;16.60;;;;;;;;;;4996576;28;20632;-86
2022/12/03 15:49:02;;;;;;;31.30;15.93;;;;;;;;;;4994018;28;20577;-86
2022/12/03 15:52:07;;;;;;;39.67;16.60;;;;;;;;;;4990965;28;20636;-86
2022/12/03 15:55:11;;;;;;;39.37;17.20;;;;;;;;;;5000717;28;20605;-86
2022/12/03 15:58:15;;;;;;;41.27;17.70;;;;;;;;;;4990089;28;20589;-86
2022/12/03 16:01:20;;;;;;;36.67;17.40;;;;;;;;;;5001793;28;20597;-86
2022/12/03 16:04:24;;;;;;;39.57;18.50;;;;;;;;;;5001899;28;20557;-87
2022/12/03 16:07:28;;;;;;;38.93;16.93;;;;;;;;;;4989583;28;20538;-86
2022/12/03 16:10:32;;;;;;;35.87;17.00;;;;;;;;;;4989297;28;20542;-86
2022/12/03 16:13:36;;;;;;;38.00;18.20;;;;;;;;;;4988105;28;20976;-86
2022/12/03 16:16:41;;;;;;;37.60;18.73;;;;;;;;;;5004110;28;20577;-87
2022/12/03 16:19:47;;;;;;;35.23;17.63;;;;;;;;;;4998671;28;20581;-86
2022/12/03 16:22:52;;;;;;;33.80;17.20;;;;;;;;;;4981381;28;20629;-86
2022/12/03 16:25:56;;;;;;;34.40;18.13;;;;;;;;;;4995373;28;20621;-87
2022/12/03 16:29:00;;;;;;;35.10;17.07;;;;;;;;;;4979854;28;20569;-86
2022/12/03 16:32:04;;;;;;;38.73;17.23;;;;;;;;;;5001272;28;20993;-83
2022/12/03 16:35:08;;;;;;;41.43;19.70;;;;;;;;;;4991192;28;20567;-84
2022/12/03 16:38:12;;;;;;;39.03;19.03;;;;;;;;;;4972833;28;20610;-86
2022/12/03 16:41:17;;;;;;;35.50;17.23;;;;;;;;;;5008219;28;20613;-86
2022/12/03 16:44:32;;;;;;;36.83;16.90;;;;;;;;;;4987281;28;20617;-86
2022/12/03 16:47:36;;;;;;;35.20;16.50;;;;;;;;;;4977872;28;20931;-86
2022/12/03 16:50:40;;;;;;;34.93;16.83;;;;;;;;;;4981558;28;20613;-85
2022/12/03 16:53:45;;;;;;;35.03;16.43;;;;;;;;;;4992381;28;21008;-86
2022/12/03 16:56:48;;;;;;;35.73;16.70;;;;;;;;;;4977794;28;20874;-86
2022/12/03 16:59:52;;;;;;;37.07;17.37;;;;;;;;;;4967964;28;20543;-87
2022/12/03 17:02:56;;;;;;;36.33;16.67;;;;;;;;;;4988765;28;20645;-86
2022/12/03 17:06:02;;;;;;;38.30;16.87;;;;;;;;;;4977774;28;20598;-86
2022/12/03 17:09:06;;;;;;;32.13;16.57;;;;;;;;;;4978199;28;20543;-86
2022/12/03 17:12:11;;;;;;;33.10;17.10;;;;;;;;;;4966332;28;20629;-86
2022/12/03 17:15:15;;;;;;;31.63;16.43;;;;;;;;;;4977145;28;20547;-87
2022/12/03 17:18:19;;;;;;;29.97;15.27;;;;;;;;;;4976925;28;20538;-87
2022/12/03 17:21:23;;;;;;;33.43;16.77;;;;;;;;;;4965898;28;20546;-86
2022/12/03 17:24:28;;;;;;;35.27;16.50;;;;;;;;;;4977003;28;20551;-86
2022/12/03 17:27:32;;;;;;;32.03;17.10;;;;;;;;;;4977122;28;20939;-86
2022/12/03 17:30:36;;;;;;;35.07;17.73;;;;;;;;;;4976067;28;20598;-86
2022/12/03 17:33:40;;;;;;;31.87;16.43;;;;;;;;;;4987271;28;20625;-86
2022/12/03 17:36:44;;;;;;;41.47;18.87;;;;;;;;;;4965279;28;20538;-87
2022/12/03 17:39:49;;;;;;;39.27;18.67;;;;;;;;;;4977096;28;20539;-86
2022/12/03 17:42:53;;;;;;;40.07;19.87;;;;;;;;;;4976581;28;20626;-86
2022/12/03 17:45:58;;;;;;;35.00;17.23;;;;;;;;;;4965086;28;21133;-86
2022/12/03 17:49:03;;;;;;;40.50;20.50;;;;;;;;;;4987669;28;20567;-86
2022/12/03 17:52:07;;;;;;;38.70;19.87;;;;;;;;;;4976273;28;21168;-87
2022/12/03 17:55:11;;;;;;;40.97;19.07;;;;;;;;;;4965135;28;20543;-86
2022/12/03 17:58:15;;;;;;;37.97;18.63;;;;;;;;;;4987341;28;20555;-86
2022/12/03 18:01:19;;;;;;;37.63;18.17;;;;;;;;;;4988523;28;20534;-86
2022/12/03 18:04:23;;;;;;;37.27;19.20;;;;;;;;;;4965103;28;20555;-86
2022/12/03 18:07:27;;;;;;;39.03;18.67;;;;;;;;;;4975766;28;20653;-86
2022/12/03 18:10:32;;;;;;;37.87;18.27;;;;;;;;;;4975782;28;20883;-86
2022/12/03 18:13:36;;;;;;;39.70;18.83;;;;;;;;;;4964543;28;20964;-86
2022/12/03 18:16:40;;;;;;;38.27;18.67;;;;;;;;;;4975720;28;20543;-86
2022/12/03 18:19:44;;;;;;;42.93;19.97;;;;;;;;;;4964868;28;20558;-86
2022/12/03 18:22:48;;;;;;;39.47;19.57;;;;;;;;;;4964761;28;20625;-86
2022/12/03 18:25:53;;;;;;;44.53;19.77;;;;;;;;;;4975520;28;20543;-86